Lovnica — YT2519 — position and weather

sailwx.info

Track history (hours):
 
Tides and Currents Weather Stations Pressure Air Temp Water Temp Dewpoint Dewpoint Depression Visibility Wind Speed Wind Dir Waves Ship Positions

Lovnica

Last reported at 2018-Jun-20 18:31 UTC. Time now 2018-Jun-20 18:47 UTC.
Position N 44°55' E 020°20'.

Length 80 m; draft 25.5 m.

Type: Cargo ship. MMSI: 279202519.

Date/timePositionNaut miles runAvg speedWind from/ knotsBaromVisibWave heightAir tempDewpointWater temp
2018-Jun-20 18:31N 44°55' E 020°20'3 6.5
2018-Jun-20 18:01N 44°57' E 020°18'3 5.8
2018-Jun-20 17:31N 44°60' E 020°19'3 5.8
2018-Jun-20 17:01N 45°02' E 020°22'4 6.7
2018-Jun-20 16:22N 45°06' E 020°18'2 6.8
2018-Jun-20 16:00N 45°08' E 020°17'4 6.7
2018-Jun-20 15:28N 45°10' E 020°13'3 6.0
2018-Jun-20 15:01N 45°11' E 020°09'3 6.9
2018-Jun-20 14:30N 45°10' E 020°04'3 6.3
2018-Jun-20 14:00N 45°11' E 019°60'3 6.5
2018-Jun-20 13:30N 45°13' E 019°56'3 6.2
2018-Jun-20 13:00N 45°15' E 019°54'0 0.0
2018-Jun-20 12:31N 45°15' E 019°54'0 0.0
2018-Jun-20 12:00N 45°15' E 019°54'0 0.0
2018-Jun-20 11:31N 45°15' E 019°54'0 0.0
2018-Jun-20 11:01N 45°15' E 019°54'0 0.0
2018-Jun-20 10:31N 45°15' E 019°54'0 0.0
2018-Jun-20 09:59N 45°15' E 019°54'2 3.3
2018-Jun-20 09:31N 45°15' E 019°51'3 5.1
2018-Jun-20 09:01N 45°13' E 019°49'3 6.6
2018-Jun-20 08:31N 45°14' E 019°45'8 6.0
2018-Jun-20 07:16N 45°13' E 019°34'2 5.8
2018-Jun-20 06:50N 45°15' E 019°32'4 7.0
2018-Jun-20 06:18N 45°14' E 019°26'2 7.3
2018-Jun-20 06:01N 45°14' E 019°23'4 7.3
2018-Jun-20 05:30N 45°14' E 019°18'4 7.4
2018-Jun-20 05:00N 45°15' E 019°13'4 7.3
2018-Jun-20 04:30N 45°17' E 019°09'3 6.5
2018-Jun-20 04:00N 45°20' E 019°06'3 6.7
2018-Jun-20 03:30N 45°21' E 019°02'2 3.3
2018-Jun-20 03:00N 45°22' E 018°60'0 0.0
2018-Jun-20 02:30N 45°22' E 018°60'0 0.0
2018-Jun-20 02:00N 45°22' E 018°60'0 0.0
2018-Jun-20 01:30N 45°22' E 018°60'0 0.0
2018-Jun-20 00:59N 45°22' E 018°60'0 0.0
2018-Jun-20 00:31N 45°22' E 018°60'0 0.0
2018-Jun-20 00:00N 45°22' E 018°60'0 0.0
2018-Jun-19 23:31N 45°22' E 018°60'0 0.0
2018-Jun-19 23:00N 45°22' E 018°60'0 0.0
2018-Jun-19 22:31N 45°22' E 018°60'0 0.0
2018-Jun-19 22:00N 45°22' E 018°60'0 0.0
2018-Jun-19 21:30N 45°22' E 018°60'0 0.0
2018-Jun-19 21:00N 45°22' E 018°60'0 0.0
2018-Jun-19 20:30N 45°22' E 018°60'1 1.5
2018-Jun-19 20:01N 45°22' E 018°59'2 4.9
2018-Jun-19 19:30N 45°24' E 019°01'3 5.5
2018-Jun-19 19:00N 45°26' E 018°59'3 6.7
2018-Jun-19 18:31N 45°30' E 019°00'4 7.1
2018-Jun-19 18:01N 45°29' E 019°05'2 4.4
2018-Jun-19 17:31N 45°32' E 019°05'0 0.0
2018-Jun-19 17:01N 45°32' E 019°05'0 0.0
2018-Jun-19 16:30N 45°32' E 019°05'0 0.0
2018-Jun-19 16:01N 45°32' E 019°05'0 0.0
2018-Jun-19 15:31N 45°32' E 019°05'0 0.0
2018-Jun-19 15:01N 45°32' E 019°05'0 0.0
2018-Jun-19 14:31N 45°32' E 019°05'0 0.0
2018-Jun-19 14:01N 45°32' E 019°05'0 0.0
2018-Jun-19 13:31N 45°32' E 019°05'0 0.0
2018-Jun-19 13:01N 45°32' E 019°05'0 0.0
2018-Jun-19 12:30N 45°32' E 019°05'0 0.0
2018-Jun-19 12:01N 45°32' E 019°05'0 0.0
2018-Jun-19 11:31N 45°32' E 019°05'0 0.0
2018-Jun-19 11:00N 45°32' E 019°05'0 0.0
2018-Jun-19 10:31N 45°32' E 019°05'0 0.0
2018-Jun-19 10:01N 45°32' E 019°05'0 0.0
2018-Jun-19 09:31N 45°32' E 019°05'0 0.0
2018-Jun-19 09:01N 45°32' E 019°05'0 0.0
2018-Jun-19 08:31N 45°32' E 019°05'0 0.0
2018-Jun-19 08:01N 45°32' E 019°05'0 0.0
2018-Jun-19 07:31N 45°32' E 019°05'0 0.0
2018-Jun-19 07:01N 45°32' E 019°05'0 0.0
2018-Jun-19 06:31N 45°32' E 019°05'0 0.0
2018-Jun-19 06:01N 45°32' E 019°05'0 0.0
2018-Jun-19 05:31N 45°32' E 019°05'0 0.0
2018-Jun-19 05:01N 45°32' E 019°05'0 0.0
2018-Jun-19 04:31N 45°32' E 019°05'0 0.0
2018-Jun-19 04:01N 45°32' E 019°05'0 0.0
2018-Jun-19 03:31N 45°32' E 019°05'0 0.0
2018-Jun-19 03:01N 45°32' E 019°05'0 0.0
2018-Jun-19 02:31N 45°32' E 019°05'0 0.0
2018-Jun-19 02:01N 45°32' E 019°05'0 0.0
2018-Jun-19 01:31N 45°32' E 019°05'0 0.0
2018-Jun-19 01:01N 45°32' E 019°05'0 0.0
2018-Jun-19 00:31N 45°32' E 019°05'0 0.0
2018-Jun-19 00:01N 45°32' E 019°05'0 0.0
2018-Jun-18 23:31N 45°32' E 019°05'0 0.0
2018-Jun-18 23:01N 45°32' E 019°05'0 0.0
2018-Jun-18 22:31N 45°32' E 019°05'0 0.0
2018-Jun-18 22:01N 45°32' E 019°05'0 0.0
2018-Jun-18 21:30N 45°32' E 019°05'0 0.0
2018-Jun-18 21:01N 45°32' E 019°05'0 0.0
2018-Jun-18 20:31N 45°32' E 019°05'0 0.0
2018-Jun-18 20:01N 45°32' E 019°05'0 0.0
2018-Jun-18 19:31N 45°32' E 019°05'0 0.0
2018-Jun-18 19:01N 45°32' E 019°05'0 0.0
2018-Jun-18 18:31N 45°32' E 019°05'0 0.0
2018-Jun-18 18:01N 45°32' E 019°05'0 0.0
2018-Jun-18 17:31N 45°32' E 019°05'0 0.0
2018-Jun-18 17:01N 45°32' E 019°05'0 0.0
2018-Jun-18 16:31N 45°32' E 019°05'0 0.0
2018-Jun-18 16:01N 45°32' E 019°05'0 0.0
2018-Jun-18 15:31N 45°32' E 019°05'0 0.0
2018-Jun-18 15:01N 45°32' E 019°05'0 0.0
2018-Jun-18 14:31N 45°32' E 019°05'0 0.0
2018-Jun-18 14:01N 45°32' E 019°05'0 0.0
2018-Jun-18 13:31N 45°32' E 019°05'0 0.0
2018-Jun-18 13:01N 45°32' E 019°05'0 0.0
2018-Jun-18 12:31N 45°32' E 019°05'0 0.0
2018-Jun-18 12:01N 45°32' E 019°05'0 0.2
2018-Jun-18 11:31N 45°32' E 019°05'0 0.0
2018-Jun-18 11:01N 45°32' E 019°05'0 0.0
2018-Jun-18 10:31N 45°32' E 019°05'0 0.0
2018-Jun-18 10:01N 45°32' E 019°05'0 0.0
2018-Jun-18 09:31N 45°32' E 019°05'0 0.0
2018-Jun-18 09:01N 45°32' E 019°05'0 0.0
2018-Jun-18 08:31N 45°32' E 019°05'0 0.0
2018-Jun-18 08:01N 45°32' E 019°05'0 0.0
2018-Jun-18 07:30N 45°32' E 019°05'0 0.0
2018-Jun-18 07:01N 45°32' E 019°05'0 0.0
2018-Jun-18 06:31N 45°32' E 019°05'0 0.0
2018-Jun-18 06:01N 45°32' E 019°05'0 0.0
2018-Jun-18 05:31N 45°32' E 019°05'0 0.0
2018-Jun-18 05:01N 45°32' E 019°05'0 0.0
2018-Jun-18 04:31N 45°32' E 019°05'0 0.0
2018-Jun-18 04:01N 45°32' E 019°05'0 0.0
2018-Jun-18 03:31N 45°32' E 019°05'0 0.0
2018-Jun-18 03:01N 45°32' E 019°05'0 0.0
2018-Jun-18 02:31N 45°32' E 019°05'0 0.0
2018-Jun-18 02:01N 45°32' E 019°05'0 0.0
2018-Jun-18 01:31N 45°32' E 019°05'0 0.0
2018-Jun-18 01:01N 45°32' E 019°05'0 0.0
2018-Jun-18 00:31N 45°32' E 019°05'0 0.0
2018-Jun-18 00:01N 45°32' E 019°05'0 0.0
2018-Jun-17 23:31N 45°32' E 019°05'0 0.0
2018-Jun-17 23:01N 45°32' E 019°05'0 0.0
2018-Jun-17 22:31N 45°32' E 019°05'0 0.0
2018-Jun-17 22:01N 45°32' E 019°05'0 0.0
2018-Jun-17 21:31N 45°32' E 019°05'0 0.0
2018-Jun-17 21:01N 45°32' E 019°05'0 0.0
2018-Jun-17 20:31N 45°32' E 019°05'0 0.0
2018-Jun-17 20:01N 45°32' E 019°05'0 0.0
2018-Jun-17 19:31N 45°32' E 019°05'0 0.0
2018-Jun-17 19:01N 45°32' E 019°05'0 0.0
2018-Jun-17 18:31N 45°32' E 019°05'0 0.0
2018-Jun-17 18:01N 45°32' E 019°05'0 0.0
2018-Jun-17 17:31N 45°32' E 019°05'0 0.0
2018-Jun-17 17:01N 45°32' E 019°05'0 0.0
2018-Jun-17 16:31N 45°32' E 019°05'0 0.0
2018-Jun-17 16:01N 45°32' E 019°05'0 0.0
2018-Jun-17 15:31N 45°32' E 019°05'0 0.0
2018-Jun-17 15:01N 45°32' E 019°05'0 0.0
2018-Jun-17 14:31N 45°32' E 019°05'0 0.0
2018-Jun-17 14:01N 45°32' E 019°05'0 0.0
2018-Jun-17 13:31N 45°32' E 019°05'0 0.0
2018-Jun-17 13:01N 45°32' E 019°05'0 0.0
2018-Jun-17 12:31N 45°32' E 019°05'0 0.0
2018-Jun-17 12:01N 45°32' E 019°05'0 0.0
2018-Jun-17 11:31N 45°32' E 019°05'0 0.0
2018-Jun-17 11:01N 45°32' E 019°05'0 0.0
2018-Jun-17 10:31N 45°32' E 019°05'0 0.0
2018-Jun-17 10:01N 45°32' E 019°05'0 0.0
2018-Jun-17 09:31N 45°32' E 019°05'0 0.0
2018-Jun-17 09:00N 45°32' E 019°05'0 0.0
2018-Jun-17 08:31N 45°32' E 019°05'0 0.0
2018-Jun-17 08:01N 45°32' E 019°05'0 0.0
2018-Jun-17 07:31N 45°32' E 019°05'0 0.0
2018-Jun-17 07:01N 45°32' E 019°05'0 0.0
2018-Jun-17 06:31N 45°32' E 019°05'0 0.0
2018-Jun-17 06:01N 45°32' E 019°05'0 0.0
2018-Jun-17 05:31N 45°32' E 019°05'0 0.0
2018-Jun-17 05:01N 45°32' E 019°05'0 0.0
2018-Jun-17 04:31N 45°32' E 019°05'0 0.0
2018-Jun-17 04:01N 45°32' E 019°05'0 0.0
2018-Jun-17 03:31N 45°32' E 019°05'0 0.0
2018-Jun-17 03:01N 45°32' E 019°05'0 0.0
2018-Jun-17 02:31N 45°32' E 019°05'0 0.0
2018-Jun-17 02:01N 45°32' E 019°05'0 0.0
2018-Jun-17 01:31N 45°32' E 019°05'0 0.0
2018-Jun-17 01:01N 45°32' E 019°05'0 0.0
2018-Jun-17 00:31N 45°32' E 019°05'0 0.0
2018-Jun-17 00:01N 45°32' E 019°05'0 0.0
2018-Jun-16 23:31N 45°32' E 019°05'0 0.0
2018-Jun-16 23:01N 45°32' E 019°05'0 0.0
2018-Jun-16 22:31N 45°32' E 019°05'0 0.0
2018-Jun-16 22:01N 45°32' E 019°05'0 0.0
2018-Jun-16 21:31N 45°32' E 019°05'0 0.0
2018-Jun-16 21:01N 45°32' E 019°05'0 0.0
2018-Jun-16 20:31N 45°32' E 019°05'0 0.0
2018-Jun-16 20:01N 45°32' E 019°05'0 0.0
2018-Jun-16 19:31N 45°32' E 019°05'0 0.0
2018-Jun-16 19:01N 45°32' E 019°05'0 0.0
2018-Jun-16 18:31N 45°32' E 019°05'0 0.0
2018-Jun-16 18:01N 45°32' E 019°05'0 0.0
2018-Jun-16 17:31N 45°32' E 019°05'0 0.0
2018-Jun-16 17:01N 45°32' E 019°05'0 0.0
2018-Jun-16 16:31N 45°32' E 019°05'0 0.0
2018-Jun-16 16:01N 45°32' E 019°05'0 0.0
2018-Jun-16 15:31N 45°32' E 019°05'1 1.5
2018-Jun-16 15:01N 45°32' E 019°04'1 1.5
2018-Jun-16 14:31N 45°32' E 019°05'0 0.0
2018-Jun-16 14:01N 45°32' E 019°05'0 0.0
2018-Jun-16 13:31N 45°32' E 019°05'0 0.0
2018-Jun-16 13:01N 45°32' E 019°05'0 0.0
2018-Jun-16 12:31N 45°32' E 019°05'0 0.0
2018-Jun-16 12:01N 45°32' E 019°05'0 0.0
2018-Jun-16 11:31N 45°32' E 019°05'0 0.0
2018-Jun-16 11:01N 45°32' E 019°05'1 1.8
2018-Jun-16 10:31N 45°32' E 019°04'1 1.8
2018-Jun-16 10:01N 45°32' E 019°05'0 0.0
2018-Jun-16 09:31N 45°32' E 019°05'0 0.0
2018-Jun-16 09:01N 45°32' E 019°05'0 0.0
2018-Jun-16 08:31N 45°32' E 019°05'0 0.0
2018-Jun-16 08:00N 45°32' E 019°05'0 0.0
2018-Jun-16 07:31N 45°32' E 019°05'0 0.0
2018-Jun-16 07:01N 45°32' E 019°05'0 0.0
2018-Jun-16 06:31N 45°32' E 019°05'0 0.0
2018-Jun-16 06:01N 45°32' E 019°05'0 0.0
2018-Jun-16 05:31N 45°32' E 019°05'0 0.0
2018-Jun-16 05:01N 45°32' E 019°05'0 0.0
2018-Jun-16 04:31N 45°32' E 019°05'0 0.0
2018-Jun-16 04:01N 45°32' E 019°05'0 0.0
2018-Jun-16 03:31N 45°32' E 019°05'0 0.0
2018-Jun-16 03:01N 45°32' E 019°05'0 0.0
2018-Jun-16 02:31N 45°32' E 019°05'0 0.0
2018-Jun-16 02:01N 45°32' E 019°05'0 0.0
2018-Jun-16 01:31N 45°32' E 019°05'0 0.0
2018-Jun-16 01:01N 45°32' E 019°05'0 0.0
2018-Jun-16 00:31N 45°32' E 019°05'0 0.0
2018-Jun-16 00:01N 45°32' E 019°05'0 0.0
2018-Jun-15 23:31N 45°32' E 019°05'0 0.0
2018-Jun-15 23:01N 45°32' E 019°05'0 0.0
2018-Jun-15 22:31N 45°32' E 019°05'0 0.0
2018-Jun-15 22:01N 45°32' E 019°05'0 0.0
2018-Jun-15 21:31N 45°32' E 019°05'0 0.0
2018-Jun-15 21:01N 45°32' E 019°05'0 0.0
2018-Jun-15 20:31N 45°32' E 019°05'0 0.0
2018-Jun-15 20:00N 45°32' E 019°05'0 0.0
2018-Jun-15 19:31N 45°32' E 019°05'0 0.0
2018-Jun-15 19:01N 45°32' E 019°05'0 0.0
2018-Jun-15 18:31N 45°32' E 019°05'0 0.0
2018-Jun-15 18:01N 45°32' E 019°05'0 0.0
2018-Jun-15 17:31N 45°32' E 019°05'0 0.0
2018-Jun-15 17:01N 45°32' E 019°05'0 0.0
2018-Jun-15 16:31N 45°32' E 019°05'0 0.0
2018-Jun-15 16:01N 45°32' E 019°05'0 0.0
2018-Jun-15 15:31N 45°32' E 019°05'0 0.0
2018-Jun-15 15:01N 45°32' E 019°05'0 0.0
2018-Jun-15 14:31N 45°32' E 019°05'0 0.0
2018-Jun-15 14:01N 45°32' E 019°05'0 0.0
2018-Jun-15 13:31N 45°32' E 019°05'0 0.0
2018-Jun-15 13:01N 45°32' E 019°05'0 0.0
2018-Jun-15 12:31N 45°32' E 019°05'0 0.0
2018-Jun-15 12:01N 45°32' E 019°05'0 0.0
2018-Jun-15 11:31N 45°32' E 019°05'0 0.0
2018-Jun-15 11:01N 45°32' E 019°05'0 0.0
2018-Jun-15 10:31N 45°32' E 019°05'0 0.0
2018-Jun-15 10:01N 45°32' E 019°05'0 0.0
2018-Jun-15 09:31N 45°32' E 019°05'0 0.0
2018-Jun-15 09:01N 45°32' E 019°05'0 0.0
2018-Jun-15 08:31N 45°32' E 019°05'0 0.0
2018-Jun-15 08:01N 45°32' E 019°05'0 0.0
2018-Jun-15 07:31N 45°32' E 019°05'0 0.0
2018-Jun-15 07:01N 45°32' E 019°05'0 0.0
2018-Jun-15 06:31N 45°32' E 019°05'0 0.0
2018-Jun-15 06:01N 45°32' E 019°05'0 0.0
2018-Jun-15 05:31N 45°32' E 019°05'0 0.0
2018-Jun-15 05:01N 45°32' E 019°05'0 0.0
2018-Jun-15 04:31N 45°32' E 019°05'0 0.0
2018-Jun-15 04:01N 45°32' E 019°05'0 0.0
2018-Jun-15 03:31N 45°32' E 019°05'0 0.0
2018-Jun-15 03:01N 45°32' E 019°05'0 0.0
2018-Jun-15 02:31N 45°32' E 019°05'0 0.0
2018-Jun-15 02:01N 45°32' E 019°05'0 0.0
2018-Jun-15 01:31N 45°32' E 019°05'0 0.0
2018-Jun-15 01:01N 45°32' E 019°05'0 0.0
2018-Jun-15 00:31N 45°32' E 019°05'0 0.0
2018-Jun-15 00:01N 45°32' E 019°05'0 0.0
2018-Jun-14 23:31N 45°32' E 019°05'0 0.0
2018-Jun-14 23:01N 45°32' E 019°05'0 0.0
2018-Jun-14 22:31N 45°32' E 019°05'0 0.0
2018-Jun-14 22:01N 45°32' E 019°05'0 0.0
2018-Jun-14 21:31N 45°32' E 019°05'0 0.0
2018-Jun-14 21:01N 45°32' E 019°05'0 0.0
2018-Jun-14 20:31N 45°32' E 019°05'0 0.0
2018-Jun-14 20:01N 45°32' E 019°05'0 0.0
2018-Jun-14 19:31N 45°32' E 019°05'0 0.0
2018-Jun-14 19:01N 45°32' E 019°05'0 0.0
2018-Jun-14 18:31N 45°32' E 019°05'0 0.0
2018-Jun-14 18:01N 45°32' E 019°05'0 0.0
2018-Jun-14 17:31N 45°32' E 019°05'0 0.0
2018-Jun-14 17:01N 45°32' E 019°05'0 0.0
2018-Jun-14 16:31N 45°32' E 019°05'0 0.0
2018-Jun-14 16:01N 45°32' E 019°05'0 0.0
2018-Jun-14 15:31N 45°32' E 019°05'0 0.0
2018-Jun-14 15:01N 45°32' E 019°05'0 0.0
2018-Jun-14 14:31N 45°32' E 019°05'0 0.0
2018-Jun-14 14:01N 45°32' E 019°05'0 0.0
2018-Jun-14 13:31N 45°32' E 019°05'0 0.0
2018-Jun-14 13:01N 45°32' E 019°05'0 0.0
2018-Jun-14 12:31N 45°32' E 019°05'0 0.0
2018-Jun-14 12:01N 45°32' E 019°05'0 0.0
2018-Jun-14 11:31N 45°32' E 019°05'0 0.0
2018-Jun-14 11:01N 45°32' E 019°05'0 0.0
2018-Jun-14 10:30N 45°32' E 019°05'0 0.0
2018-Jun-14 10:01N 45°32' E 019°05'0 0.0
2018-Jun-14 09:31N 45°32' E 019°05'0 0.0
2018-Jun-14 09:01N 45°32' E 019°05'0 0.0
2018-Jun-14 08:31N 45°32' E 019°05'0 0.0
2018-Jun-14 08:01N 45°32' E 019°05'0 0.0
2018-Jun-14 07:31N 45°32' E 019°05'0 0.0
2018-Jun-14 07:01N 45°32' E 019°05'0 0.0
2018-Jun-14 06:31N 45°32' E 019°05'0 0.0
2018-Jun-14 06:01N 45°32' E 019°05'0 0.0
2018-Jun-14 05:31N 45°32' E 019°05'0 0.0
2018-Jun-14 05:01N 45°32' E 019°05'0 0.0
2018-Jun-14 04:31N 45°32' E 019°05'0 0.0
2018-Jun-14 04:01N 45°32' E 019°05'0 0.0
2018-Jun-14 03:31N 45°32' E 019°05'0 0.0
2018-Jun-14 03:01N 45°32' E 019°05'0 0.0
2018-Jun-14 02:31N 45°32' E 019°05'0 0.0
2018-Jun-14 02:01N 45°32' E 019°05'0 0.0
2018-Jun-14 01:31N 45°32' E 019°05'0 0.0
2018-Jun-14 01:01N 45°32' E 019°05'0 0.0
2018-Jun-14 00:31N 45°32' E 019°05'0 0.0
2018-Jun-14 00:01N 45°32' E 019°05'0 0.0
2018-Jun-13 23:31N 45°32' E 019°05'0 0.0
2018-Jun-13 23:01N 45°32' E 019°05'0 0.0
2018-Jun-13 22:31N 45°32' E 019°05'0 0.0
2018-Jun-13 22:01N 45°32' E 019°05'0 0.0
2018-Jun-13 21:31N 45°32' E 019°05'0 0.0
2018-Jun-13 21:01N 45°32' E 019°05'0 0.0
2018-Jun-13 20:31N 45°32' E 019°05'0 0.0
2018-Jun-13 20:01N 45°32' E 019°05'0 0.0
2018-Jun-13 19:31N 45°32' E 019°05'0 0.0
2018-Jun-13 19:01N 45°32' E 019°05'0 0.0
2018-Jun-13 18:31N 45°32' E 019°05'0 0.0
2018-Jun-13 18:01N 45°32' E 019°05'0 0.0
2018-Jun-13 17:31N 45°32' E 019°05'0 0.0
2018-Jun-13 17:01N 45°32' E 019°05'0 0.0
2018-Jun-13 16:31N 45°32' E 019°05'0 0.0
2018-Jun-13 16:01N 45°32' E 019°05'0 0.0
2018-Jun-13 15:31N 45°32' E 019°05'0 0.0
2018-Jun-13 15:01N 45°32' E 019°05'0 0.0
2018-Jun-13 14:31N 45°32' E 019°05'0 0.0
2018-Jun-13 14:01N 45°32' E 019°05'0 0.0
2018-Jun-13 13:31N 45°32' E 019°05'0 0.0
2018-Jun-13 13:01N 45°32' E 019°05'0 0.0
2018-Jun-13 12:31N 45°32' E 019°05'0 0.0
2018-Jun-13 12:01N 45°32' E 019°05'0 0.0
2018-Jun-13 11:31N 45°32' E 019°05'0 0.0
2018-Jun-13 11:01N 45°32' E 019°05'0 0.0
2018-Jun-13 10:31N 45°32' E 019°05'0 0.0
2018-Jun-13 10:01N 45°32' E 019°05'0 0.0
2018-Jun-13 09:31N 45°32' E 019°05'0 0.0
2018-Jun-13 09:01N 45°32' E 019°05'0 0.0
2018-Jun-13 08:31N 45°32' E 019°05'0 0.0
2018-Jun-13 08:01N 45°32' E 019°05'0 0.8
2018-Jun-13 07:31N 45°32' E 019°05'0 0.3
2018-Jun-13 07:01N 45°32' E 019°04'0 0.0
2018-Jun-13 06:31N 45°32' E 019°04'0 0.0
2018-Jun-13 06:01N 45°32' E 019°04'0 0.0
2018-Jun-13 05:31N 45°32' E 019°04'0 0.0
2018-Jun-13 05:01N 45°32' E 019°04'0 0.0
2018-Jun-13 04:31N 45°32' E 019°04'0 0.0
2018-Jun-13 04:01N 45°32' E 019°04'0 0.0
2018-Jun-13 03:31N 45°32' E 019°04'0 0.0
2018-Jun-13 03:01N 45°32' E 019°04'0 0.0
2018-Jun-13 02:31N 45°32' E 019°04'0 0.0
2018-Jun-13 02:01N 45°32' E 019°04'0 0.0
2018-Jun-13 01:31N 45°32' E 019°04'0 0.0
2018-Jun-13 01:01N 45°32' E 019°04'0 0.0
2018-Jun-13 00:31N 45°32' E 019°04'0 0.0
2018-Jun-13 00:01N 45°32' E 019°04'0 0.0
2018-Jun-12 23:31N 45°32' E 019°04'0 0.0
2018-Jun-12 23:01N 45°32' E 019°04'0 0.0
2018-Jun-12 22:31N 45°32' E 019°04'0 0.0
2018-Jun-12 22:01N 45°32' E 019°04'0 0.0
2018-Jun-12 21:31N 45°32' E 019°04'0 0.0
2018-Jun-12 21:01N 45°32' E 019°04'0 0.0
2018-Jun-12 20:31N 45°32' E 019°04'1 2.2
2018-Jun-12 20:00N 45°31' E 019°06'2 3.1
2018-Jun-12 19:31N 45°30' E 019°06'2 3.8
2018-Jun-12 19:01N 45°29' E 019°03'2 4.1
2018-Jun-12 18:31N 45°30' E 019°00'2 3.4
2018-Jun-12 18:01N 45°28' E 018°59'2 3.9
2018-Jun-12 17:31N 45°26' E 018°60'2 3.8
2018-Jun-12 17:01N 45°25' E 019°02'2 3.0
2018-Jun-12 16:30N 45°24' E 019°00'2 3.5
2018-Jun-12 16:01N 45°23' E 018°58'2 3.5
2018-Jun-12 15:29N 45°22' E 018°60'2 3.7
2018-Jun-12 14:53N 45°21' E 019°02'2 4.1
2018-Jun-12 14:30N 45°21' E 019°05'2 3.4
2018-Jun-12 14:00N 45°19' E 019°06'2 3.6
2018-Jun-12 13:30N 45°18' E 019°07'2 4.0
2018-Jun-12 13:00N 45°17' E 019°09'2 4.1
2018-Jun-12 12:30N 45°16' E 019°12'3 3.5
2018-Jun-12 11:41N 45°14' E 019°16'1 1.5
2018-Jun-12 10:51N 45°14' E 019°17'1 4.0
2018-Jun-12 10:30N 45°14' E 019°19'2 3.7
2018-Jun-12 10:00N 45°14' E 019°22'2 3.5
2018-Jun-12 09:30N 45°14' E 019°25'11 3.5
2018-Jun-12 06:21N 45°13' E 019°40'2 4.1
2018-Jun-12 05:57N 45°14' E 019°42'2 4.2
2018-Jun-12 05:30N 45°14' E 019°45'2 4.2
2018-Jun-12 04:59N 45°13' E 019°48'2 3.9
2018-Jun-12 04:30N 45°14' E 019°51'2 4.0
2018-Jun-12 04:00N 45°16' E 019°52'1 2.4
2018-Jun-12 03:30N 45°16' E 019°53'1 1.5
2018-Jun-12 03:00N 45°15' E 019°54'0 0.0
2018-Jun-12 02:30N 45°15' E 019°54'0 0.0
2018-Jun-12 02:01N 45°15' E 019°54'0 0.0
2018-Jun-12 01:31N 45°15' E 019°54'0 0.0
2018-Jun-12 00:50N 45°15' E 019°54'0 0.0
2018-Jun-12 00:31N 45°15' E 019°54'0 0.0
2018-Jun-12 00:01N 45°15' E 019°54'0 0.0
2018-Jun-11 23:31N 45°15' E 019°54'0 0.0
2018-Jun-11 23:01N 45°15' E 019°54'1 1.0
2018-Jun-11 22:31N 45°15' E 019°55'2 4.2
2018-Jun-11 22:01N 45°13' E 019°56'2 3.7
2018-Jun-11 21:31N 45°12' E 019°58'2 4.7
2018-Jun-11 21:00N 45°11' E 020°01'2 4.7
2018-Jun-11 20:31N 45°10' E 020°04'2 4.4
2018-Jun-11 20:00N 45°10' E 020°07'2 4.5
2018-Jun-11 19:30N 45°11' E 020°10'2 4.2
2018-Jun-11 19:01N 45°10' E 020°13'2 4.5
2018-Jun-11 18:30N 45°09' E 020°15'2 4.6
2018-Jun-11 18:00N 45°07' E 020°17'4 4.5
2018-Jun-11 17:11N 45°04' E 020°20'1 5.1
2018-Jun-11 17:00N 45°03' E 020°21'2 4.7
2018-Jun-11 16:31N 45°01' E 020°22'2 3.7
2018-Jun-11 16:00N 44°60' E 020°20'2 4.1
2018-Jun-11 15:31N 44°59' E 020°17'2 4.1
2018-Jun-11 15:00N 44°57' E 020°18'2 4.2
2018-Jun-11 14:31N 44°55' E 020°20'2 4.5
2018-Jun-11 14:01N 44°53' E 020°21'2 4.7
2018-Jun-11 13:31N 44°52' E 020°23'2 4.6
2018-Jun-11 13:01N 44°51' E 020°26'2 4.8
2018-Jun-11 12:31N 44°50' E 020°29'3 5.1
2018-Jun-11 12:01N 44°50' E 020°33'2 4.8
2018-Jun-11 11:30N 44°51' E 020°36'2 4.7
2018-Jun-11 11:01N 44°50' E 020°39'3 5.2
2018-Jun-11 10:30N 44°47' E 020°38'3 4.8
2018-Jun-11 09:55N 44°45' E 020°39'3 5.2
2018-Jun-11 09:15N 44°42' E 020°42'  
Track history (hours):
 
Tides and Currents Weather Stations Pressure Air Temp Water Temp Dewpoint Dewpoint Depression Visibility Wind Speed Wind Dir Waves Ship Positions

Lovnica

Last reported at 2018-Jun-20 18:31 UTC. Time now 2018-Jun-20 18:47 UTC.
Position N 44°55' E 020°20'.

Length 80 m; draft 25.5 m.

Type: Cargo ship. MMSI: 279202519.

Date/timePositionNaut miles runAvg speedWind from/ knotsBaromVisibWave heightAir tempDewpointWater temp
2018-Jun-20 18:31N 44°55' E 020°20'3 6.5
2018-Jun-20 18:01N 44°57' E 020°18'3 5.8
2018-Jun-20 17:31N 44°60' E 020°19'3 5.8
2018-Jun-20 17:01N 45°02' E 020°22'4 6.7
2018-Jun-20 16:22N 45°06' E 020°18'2 6.8
2018-Jun-20 16:00N 45°08' E 020°17'4 6.7
2018-Jun-20 15:28N 45°10' E 020°13'3 6.0
2018-Jun-20 15:01N 45°11' E 020°09'3 6.9
2018-Jun-20 14:30N 45°10' E 020°04'3 6.3
2018-Jun-20 14:00N 45°11' E 019°60'3 6.5
2018-Jun-20 13:30N 45°13' E 019°56'3 6.2
2018-Jun-20 13:00N 45°15' E 019°54'0 0.0
2018-Jun-20 12:31N 45°15' E 019°54'0 0.0
2018-Jun-20 12:00N 45°15' E 019°54'0 0.0
2018-Jun-20 11:31N 45°15' E 019°54'0 0.0
2018-Jun-20 11:01N 45°15' E 019°54'0 0.0
2018-Jun-20 10:31N 45°15' E 019°54'0 0.0
2018-Jun-20 09:59N 45°15' E 019°54'2 3.3
2018-Jun-20 09:31N 45°15' E 019°51'3 5.1
2018-Jun-20 09:01N 45°13' E 019°49'3 6.6
2018-Jun-20 08:31N 45°14' E 019°45'8 6.0
2018-Jun-20 07:16N 45°13' E 019°34'2 5.8
2018-Jun-20 06:50N 45°15' E 019°32'4 7.0
2018-Jun-20 06:18N 45°14' E 019°26'2 7.3
2018-Jun-20 06:01N 45°14' E 019°23'4 7.3
2018-Jun-20 05:30N 45°14' E 019°18'4 7.4
2018-Jun-20 05:00N 45°15' E 019°13'4 7.3
2018-Jun-20 04:30N 45°17' E 019°09'3 6.5
2018-Jun-20 04:00N 45°20' E 019°06'3 6.7
2018-Jun-20 03:30N 45°21' E 019°02'2 3.3
2018-Jun-20 03:00N 45°22' E 018°60'0 0.0
2018-Jun-20 02:30N 45°22' E 018°60'0 0.0
2018-Jun-20 02:00N 45°22' E 018°60'0 0.0
2018-Jun-20 01:30N 45°22' E 018°60'0 0.0
2018-Jun-20 00:59N 45°22' E 018°60'0 0.0
2018-Jun-20 00:31N 45°22' E 018°60'0 0.0
2018-Jun-20 00:00N 45°22' E 018°60'0 0.0
2018-Jun-19 23:31N 45°22' E 018°60'0 0.0
2018-Jun-19 23:00N 45°22' E 018°60'0 0.0
2018-Jun-19 22:31N 45°22' E 018°60'0 0.0
2018-Jun-19 22:00N 45°22' E 018°60'0 0.0
2018-Jun-19 21:30N 45°22' E 018°60'0 0.0
2018-Jun-19 21:00N 45°22' E 018°60'0 0.0
2018-Jun-19 20:30N 45°22' E 018°60'1 1.5
2018-Jun-19 20:01N 45°22' E 018°59'2 4.9
2018-Jun-19 19:30N 45°24' E 019°01'3 5.5
2018-Jun-19 19:00N 45°26' E 018°59'3 6.7
2018-Jun-19 18:31N 45°30' E 019°00'4 7.1
2018-Jun-19 18:01N 45°29' E 019°05'2 4.4
2018-Jun-19 17:31N 45°32' E 019°05'0 0.0
2018-Jun-19 17:01N 45°32' E 019°05'0 0.0
2018-Jun-19 16:30N 45°32' E 019°05'0 0.0
2018-Jun-19 16:01N 45°32' E 019°05'0 0.0
2018-Jun-19 15:31N 45°32' E 019°05'0 0.0
2018-Jun-19 15:01N 45°32' E 019°05'0 0.0
2018-Jun-19 14:31N 45°32' E 019°05'0 0.0
2018-Jun-19 14:01N 45°32' E 019°05'0 0.0
2018-Jun-19 13:31N 45°32' E 019°05'0 0.0
2018-Jun-19 13:01N 45°32' E 019°05'0 0.0
2018-Jun-19 12:30N 45°32' E 019°05'0 0.0
2018-Jun-19 12:01N 45°32' E 019°05'0 0.0
2018-Jun-19 11:31N 45°32' E 019°05'0 0.0
2018-Jun-19 11:00N 45°32' E 019°05'0 0.0
2018-Jun-19 10:31N 45°32' E 019°05'0 0.0
2018-Jun-19 10:01N 45°32' E 019°05'0 0.0
2018-Jun-19 09:31N 45°32' E 019°05'0 0.0
2018-Jun-19 09:01N 45°32' E 019°05'0 0.0
2018-Jun-19 08:31N 45°32' E 019°05'0 0.0
2018-Jun-19 08:01N 45°32' E 019°05'0 0.0
2018-Jun-19 07:31N 45°32' E 019°05'0 0.0
2018-Jun-19 07:01N 45°32' E 019°05'0 0.0
2018-Jun-19 06:31N 45°32' E 019°05'0 0.0
2018-Jun-19 06:01N 45°32' E 019°05'0 0.0
2018-Jun-19 05:31N 45°32' E 019°05'0 0.0
2018-Jun-19 05:01N 45°32' E 019°05'0 0.0
2018-Jun-19 04:31N 45°32' E 019°05'0 0.0
2018-Jun-19 04:01N 45°32' E 019°05'0 0.0
2018-Jun-19 03:31N 45°32' E 019°05'0 0.0
2018-Jun-19 03:01N 45°32' E 019°05'0 0.0
2018-Jun-19 02:31N 45°32' E 019°05'0 0.0
2018-Jun-19 02:01N 45°32' E 019°05'0 0.0
2018-Jun-19 01:31N 45°32' E 019°05'0 0.0
2018-Jun-19 01:01N 45°32' E 019°05'0 0.0
2018-Jun-19 00:31N 45°32' E 019°05'0 0.0
2018-Jun-19 00:01N 45°32' E 019°05'0 0.0
2018-Jun-18 23:31N 45°32' E 019°05'0 0.0
2018-Jun-18 23:01N 45°32' E 019°05'0 0.0
2018-Jun-18 22:31N 45°32' E 019°05'0 0.0
2018-Jun-18 22:01N 45°32' E 019°05'0 0.0
2018-Jun-18 21:30N 45°32' E 019°05'0 0.0
2018-Jun-18 21:01N 45°32' E 019°05'0 0.0
2018-Jun-18 20:31N 45°32' E 019°05'0 0.0
2018-Jun-18 20:01N 45°32' E 019°05'0 0.0
2018-Jun-18 19:31N 45°32' E 019°05'0 0.0
2018-Jun-18 19:01N 45°32' E 019°05'0 0.0
2018-Jun-18 18:31N 45°32' E 019°05'0 0.0
2018-Jun-18 18:01N 45°32' E 019°05'0 0.0
2018-Jun-18 17:31N 45°32' E 019°05'0 0.0
2018-Jun-18 17:01N 45°32' E 019°05'0 0.0
2018-Jun-18 16:31N 45°32' E 019°05'0 0.0
2018-Jun-18 16:01N 45°32' E 019°05'0 0.0
2018-Jun-18 15:31N 45°32' E 019°05'0 0.0
2018-Jun-18 15:01N 45°32' E 019°05'0 0.0
2018-Jun-18 14:31N 45°32' E 019°05'0 0.0
2018-Jun-18 14:01N 45°32' E 019°05'0 0.0
2018-Jun-18 13:31N 45°32' E 019°05'0 0.0
2018-Jun-18 13:01N 45°32' E 019°05'0 0.0
2018-Jun-18 12:31N 45°32' E 019°05'0 0.0
2018-Jun-18 12:01N 45°32' E 019°05'0 0.2
2018-Jun-18 11:31N 45°32' E 019°05'0 0.0
2018-Jun-18 11:01N 45°32' E 019°05'0 0.0
2018-Jun-18 10:31N 45°32' E 019°05'0 0.0
2018-Jun-18 10:01N 45°32' E 019°05'0 0.0
2018-Jun-18 09:31N 45°32' E 019°05'0 0.0
2018-Jun-18 09:01N 45°32' E 019°05'0 0.0
2018-Jun-18 08:31N 45°32' E 019°05'0 0.0
2018-Jun-18 08:01N 45°32' E 019°05'0 0.0
2018-Jun-18 07:30N 45°32' E 019°05'0 0.0
2018-Jun-18 07:01N 45°32' E 019°05'0 0.0
2018-Jun-18 06:31N 45°32' E 019°05'0 0.0
2018-Jun-18 06:01N 45°32' E 019°05'0 0.0
2018-Jun-18 05:31N 45°32' E 019°05'0 0.0
2018-Jun-18 05:01N 45°32' E 019°05'0 0.0
2018-Jun-18 04:31N 45°32' E 019°05'0 0.0
2018-Jun-18 04:01N 45°32' E 019°05'0 0.0
2018-Jun-18 03:31N 45°32' E 019°05'0 0.0
2018-Jun-18 03:01N 45°32' E 019°05'0 0.0
2018-Jun-18 02:31N 45°32' E 019°05'0 0.0
2018-Jun-18 02:01N 45°32' E 019°05'0 0.0
2018-Jun-18 01:31N 45°32' E 019°05'0 0.0
2018-Jun-18 01:01N 45°32' E 019°05'0 0.0
2018-Jun-18 00:31N 45°32' E 019°05'0 0.0
2018-Jun-18 00:01N 45°32' E 019°05'0 0.0
2018-Jun-17 23:31N 45°32' E 019°05'0 0.0
2018-Jun-17 23:01N 45°32' E 019°05'0 0.0
2018-Jun-17 22:31N 45°32' E 019°05'0 0.0
2018-Jun-17 22:01N 45°32' E 019°05'0 0.0
2018-Jun-17 21:31N 45°32' E 019°05'0 0.0
2018-Jun-17 21:01N 45°32' E 019°05'0 0.0
2018-Jun-17 20:31N 45°32' E 019°05'0 0.0
2018-Jun-17 20:01N 45°32' E 019°05'0 0.0
2018-Jun-17 19:31N 45°32' E 019°05'0 0.0
2018-Jun-17 19:01N 45°32' E 019°05'0 0.0
2018-Jun-17 18:31N 45°32' E 019°05'0 0.0
2018-Jun-17 18:01N 45°32' E 019°05'0 0.0
2018-Jun-17 17:31N 45°32' E 019°05'0 0.0
2018-Jun-17 17:01N 45°32' E 019°05'0 0.0
2018-Jun-17 16:31N 45°32' E 019°05'0 0.0
2018-Jun-17 16:01N 45°32' E 019°05'0 0.0
2018-Jun-17 15:31N 45°32' E 019°05'0 0.0
2018-Jun-17 15:01N 45°32' E 019°05'0 0.0
2018-Jun-17 14:31N 45°32' E 019°05'0 0.0
2018-Jun-17 14:01N 45°32' E 019°05'0 0.0
2018-Jun-17 13:31N 45°32' E 019°05'0 0.0
2018-Jun-17 13:01N 45°32' E 019°05'0 0.0
2018-Jun-17 12:31N 45°32' E 019°05'0 0.0
2018-Jun-17 12:01N 45°32' E 019°05'0 0.0
2018-Jun-17 11:31N 45°32' E 019°05'0 0.0
2018-Jun-17 11:01N 45°32' E 019°05'0 0.0
2018-Jun-17 10:31N 45°32' E 019°05'0 0.0
2018-Jun-17 10:01N 45°32' E 019°05'0 0.0
2018-Jun-17 09:31N 45°32' E 019°05'0 0.0
2018-Jun-17 09:00N 45°32' E 019°05'0 0.0
2018-Jun-17 08:31N 45°32' E 019°05'0 0.0
2018-Jun-17 08:01N 45°32' E 019°05'0 0.0
2018-Jun-17 07:31N 45°32' E 019°05'0 0.0
2018-Jun-17 07:01N 45°32' E 019°05'0 0.0
2018-Jun-17 06:31N 45°32' E 019°05'0 0.0
2018-Jun-17 06:01N 45°32' E 019°05'0 0.0
2018-Jun-17 05:31N 45°32' E 019°05'0 0.0
2018-Jun-17 05:01N 45°32' E 019°05'0 0.0
2018-Jun-17 04:31N 45°32' E 019°05'0 0.0
2018-Jun-17 04:01N 45°32' E 019°05'0 0.0
2018-Jun-17 03:31N 45°32' E 019°05'0 0.0
2018-Jun-17 03:01N 45°32' E 019°05'0 0.0
2018-Jun-17 02:31N 45°32' E 019°05'0 0.0
2018-Jun-17 02:01N 45°32' E 019°05'0 0.0
2018-Jun-17 01:31N 45°32' E 019°05'0 0.0
2018-Jun-17 01:01N 45°32' E 019°05'0 0.0
2018-Jun-17 00:31N 45°32' E 019°05'0 0.0
2018-Jun-17 00:01N 45°32' E 019°05'0 0.0
2018-Jun-16 23:31N 45°32' E 019°05'0 0.0
2018-Jun-16 23:01N 45°32' E 019°05'0 0.0
2018-Jun-16 22:31N 45°32' E 019°05'0 0.0
2018-Jun-16 22:01N 45°32' E 019°05'0 0.0
2018-Jun-16 21:31N 45°32' E 019°05'0 0.0
2018-Jun-16 21:01N 45°32' E 019°05'0 0.0
2018-Jun-16 20:31N 45°32' E 019°05'0 0.0
2018-Jun-16 20:01N 45°32' E 019°05'0 0.0
2018-Jun-16 19:31N 45°32' E 019°05'0 0.0
2018-Jun-16 19:01N 45°32' E 019°05'0 0.0
2018-Jun-16 18:31N 45°32' E 019°05'0 0.0
2018-Jun-16 18:01N 45°32' E 019°05'0 0.0
2018-Jun-16 17:31N 45°32' E 019°05'0 0.0
2018-Jun-16 17:01N 45°32' E 019°05'0 0.0
2018-Jun-16 16:31N 45°32' E 019°05'0 0.0
2018-Jun-16 16:01N 45°32' E 019°05'0 0.0
2018-Jun-16 15:31N 45°32' E 019°05'1 1.5
2018-Jun-16 15:01N 45°32' E 019°04'1 1.5
2018-Jun-16 14:31N 45°32' E 019°05'0 0.0
2018-Jun-16 14:01N 45°32' E 019°05'0 0.0
2018-Jun-16 13:31N 45°32' E 019°05'0 0.0
2018-Jun-16 13:01N 45°32' E 019°05'0 0.0
2018-Jun-16 12:31N 45°32' E 019°05'0 0.0
2018-Jun-16 12:01N 45°32' E 019°05'0 0.0
2018-Jun-16 11:31N 45°32' E 019°05'0 0.0
2018-Jun-16 11:01N 45°32' E 019°05'1 1.8
2018-Jun-16 10:31N 45°32' E 019°04'1 1.8
2018-Jun-16 10:01N 45°32' E 019°05'0 0.0
2018-Jun-16 09:31N 45°32' E 019°05'0 0.0
2018-Jun-16 09:01N 45°32' E 019°05'0 0.0
2018-Jun-16 08:31N 45°32' E 019°05'0 0.0
2018-Jun-16 08:00N 45°32' E 019°05'0 0.0
2018-Jun-16 07:31N 45°32' E 019°05'0 0.0
2018-Jun-16 07:01N 45°32' E 019°05'0 0.0
2018-Jun-16 06:31N 45°32' E 019°05'0 0.0
2018-Jun-16 06:01N 45°32' E 019°05'0 0.0
2018-Jun-16 05:31N 45°32' E 019°05'0 0.0
2018-Jun-16 05:01N 45°32' E 019°05'0 0.0
2018-Jun-16 04:31N 45°32' E 019°05'0 0.0
2018-Jun-16 04:01N 45°32' E 019°05'0 0.0
2018-Jun-16 03:31N 45°32' E 019°05'0 0.0
2018-Jun-16 03:01N 45°32' E 019°05'0 0.0
2018-Jun-16 02:31N 45°32' E 019°05'0 0.0
2018-Jun-16 02:01N 45°32' E 019°05'0 0.0
2018-Jun-16 01:31N 45°32' E 019°05'0 0.0
2018-Jun-16 01:01N 45°32' E 019°05'0 0.0
2018-Jun-16 00:31N 45°32' E 019°05'0 0.0
2018-Jun-16 00:01N 45°32' E 019°05'0 0.0
2018-Jun-15 23:31N 45°32' E 019°05'0 0.0
2018-Jun-15 23:01N 45°32' E 019°05'0 0.0
2018-Jun-15 22:31N 45°32' E 019°05'0 0.0
2018-Jun-15 22:01N 45°32' E 019°05'0 0.0
2018-Jun-15 21:31N 45°32' E 019°05'0 0.0
2018-Jun-15 21:01N 45°32' E 019°05'0 0.0
2018-Jun-15 20:31N 45°32' E 019°05'0 0.0
2018-Jun-15 20:00N 45°32' E 019°05'0 0.0
2018-Jun-15 19:31N 45°32' E 019°05'0 0.0
2018-Jun-15 19:01N 45°32' E 019°05'0 0.0
2018-Jun-15 18:31N 45°32' E 019°05'0 0.0
2018-Jun-15 18:01N 45°32' E 019°05'0 0.0
2018-Jun-15 17:31N 45°32' E 019°05'0 0.0
2018-Jun-15 17:01N 45°32' E 019°05'0 0.0
2018-Jun-15 16:31N 45°32' E 019°05'0 0.0
2018-Jun-15 16:01N 45°32' E 019°05'0 0.0
2018-Jun-15 15:31N 45°32' E 019°05'0 0.0
2018-Jun-15 15:01N 45°32' E 019°05'0 0.0
2018-Jun-15 14:31N 45°32' E 019°05'0 0.0
2018-Jun-15 14:01N 45°32' E 019°05'0 0.0
2018-Jun-15 13:31N 45°32' E 019°05'0 0.0
2018-Jun-15 13:01N 45°32' E 019°05'0 0.0
2018-Jun-15 12:31N 45°32' E 019°05'0 0.0
2018-Jun-15 12:01N 45°32' E 019°05'0 0.0
2018-Jun-15 11:31N 45°32' E 019°05'0 0.0
2018-Jun-15 11:01N 45°32' E 019°05'0 0.0
2018-Jun-15 10:31N 45°32' E 019°05'0 0.0
2018-Jun-15 10:01N 45°32' E 019°05'0 0.0
2018-Jun-15 09:31N 45°32' E 019°05'0 0.0
2018-Jun-15 09:01N 45°32' E 019°05'0 0.0
2018-Jun-15 08:31N 45°32' E 019°05'0 0.0
2018-Jun-15 08:01N 45°32' E 019°05'0 0.0
2018-Jun-15 07:31N 45°32' E 019°05'0 0.0
2018-Jun-15 07:01N 45°32' E 019°05'0 0.0
2018-Jun-15 06:31N 45°32' E 019°05'0 0.0
2018-Jun-15 06:01N 45°32' E 019°05'0 0.0
2018-Jun-15 05:31N 45°32' E 019°05'0 0.0
2018-Jun-15 05:01N 45°32' E 019°05'0 0.0
2018-Jun-15 04:31N 45°32' E 019°05'0 0.0
2018-Jun-15 04:01N 45°32' E 019°05'0 0.0
2018-Jun-15 03:31N 45°32' E 019°05'0 0.0
2018-Jun-15 03:01N 45°32' E 019°05'0 0.0
2018-Jun-15 02:31N 45°32' E 019°05'0 0.0
2018-Jun-15 02:01N 45°32' E 019°05'0 0.0
2018-Jun-15 01:31N 45°32' E 019°05'0 0.0
2018-Jun-15 01:01N 45°32' E 019°05'0 0.0
2018-Jun-15 00:31N 45°32' E 019°05'0 0.0
2018-Jun-15 00:01N 45°32' E 019°05'0 0.0
2018-Jun-14 23:31N 45°32' E 019°05'0 0.0
2018-Jun-14 23:01N 45°32' E 019°05'0 0.0
2018-Jun-14 22:31N 45°32' E 019°05'0 0.0
2018-Jun-14 22:01N 45°32' E 019°05'0 0.0
2018-Jun-14 21:31N 45°32' E 019°05'0 0.0
2018-Jun-14 21:01N 45°32' E 019°05'0 0.0
2018-Jun-14 20:31N 45°32' E 019°05'0 0.0
2018-Jun-14 20:01N 45°32' E 019°05'0 0.0
2018-Jun-14 19:31N 45°32' E 019°05'0 0.0
2018-Jun-14 19:01N 45°32' E 019°05'0 0.0
2018-Jun-14 18:31N 45°32' E 019°05'0 0.0
2018-Jun-14 18:01N 45°32' E 019°05'0 0.0
2018-Jun-14 17:31N 45°32' E 019°05'0 0.0
2018-Jun-14 17:01N 45°32' E 019°05'0 0.0
2018-Jun-14 16:31N 45°32' E 019°05'0 0.0
2018-Jun-14 16:01N 45°32' E 019°05'0 0.0
2018-Jun-14 15:31N 45°32' E 019°05'0 0.0
2018-Jun-14 15:01N 45°32' E 019°05'0 0.0
2018-Jun-14 14:31N 45°32' E 019°05'0 0.0
2018-Jun-14 14:01N 45°32' E 019°05'0 0.0
2018-Jun-14 13:31N 45°32' E 019°05'0 0.0
2018-Jun-14 13:01N 45°32' E 019°05'0 0.0
2018-Jun-14 12:31N 45°32' E 019°05'0 0.0
2018-Jun-14 12:01N 45°32' E 019°05'0 0.0
2018-Jun-14 11:31N 45°32' E 019°05'0 0.0
2018-Jun-14 11:01N 45°32' E 019°05'0 0.0
2018-Jun-14 10:30N 45°32' E 019°05'0 0.0
2018-Jun-14 10:01N 45°32' E 019°05'0 0.0
2018-Jun-14 09:31N 45°32' E 019°05'0 0.0
2018-Jun-14 09:01N 45°32' E 019°05'0 0.0
2018-Jun-14 08:31N 45°32' E 019°05'0 0.0
2018-Jun-14 08:01N 45°32' E 019°05'0 0.0
2018-Jun-14 07:31N 45°32' E 019°05'0 0.0
2018-Jun-14 07:01N 45°32' E 019°05'0 0.0
2018-Jun-14 06:31N 45°32' E 019°05'0 0.0
2018-Jun-14 06:01N 45°32' E 019°05'0 0.0
2018-Jun-14 05:31N 45°32' E 019°05'0 0.0
2018-Jun-14 05:01N 45°32' E 019°05'0 0.0
2018-Jun-14 04:31N 45°32' E 019°05'0 0.0
2018-Jun-14 04:01N 45°32' E 019°05'0 0.0
2018-Jun-14 03:31N 45°32' E 019°05'0 0.0
2018-Jun-14 03:01N 45°32' E 019°05'0 0.0
2018-Jun-14 02:31N 45°32' E 019°05'0 0.0
2018-Jun-14 02:01N 45°32' E 019°05'0 0.0
2018-Jun-14 01:31N 45°32' E 019°05'0 0.0
2018-Jun-14 01:01N 45°32' E 019°05'0 0.0
2018-Jun-14 00:31N 45°32' E 019°05'0 0.0
2018-Jun-14 00:01N 45°32' E 019°05'0 0.0
2018-Jun-13 23:31N 45°32' E 019°05'0 0.0
2018-Jun-13 23:01N 45°32' E 019°05'0 0.0
2018-Jun-13 22:31N 45°32' E 019°05'0 0.0
2018-Jun-13 22:01N 45°32' E 019°05'0 0.0
2018-Jun-13 21:31N 45°32' E 019°05'0 0.0
2018-Jun-13 21:01N 45°32' E 019°05'0 0.0
2018-Jun-13 20:31N 45°32' E 019°05'0 0.0
2018-Jun-13 20:01N 45°32' E 019°05'0 0.0
2018-Jun-13 19:31N 45°32' E 019°05'0 0.0
2018-Jun-13 19:01N 45°32' E 019°05'0 0.0
2018-Jun-13 18:31N 45°32' E 019°05'0 0.0
2018-Jun-13 18:01N 45°32' E 019°05'0 0.0
2018-Jun-13 17:31N 45°32' E 019°05'0 0.0
2018-Jun-13 17:01N 45°32' E 019°05'0 0.0
2018-Jun-13 16:31N 45°32' E 019°05'0 0.0
2018-Jun-13 16:01N 45°32' E 019°05'0 0.0
2018-Jun-13 15:31N 45°32' E 019°05'0 0.0
2018-Jun-13 15:01N 45°32' E 019°05'0 0.0
2018-Jun-13 14:31N 45°32' E 019°05'0 0.0
2018-Jun-13 14:01N 45°32' E 019°05'0 0.0
2018-Jun-13 13:31N 45°32' E 019°05'0 0.0
2018-Jun-13 13:01N 45°32' E 019°05'0 0.0
2018-Jun-13 12:31N 45°32' E 019°05'0 0.0
2018-Jun-13 12:01N 45°32' E 019°05'0 0.0
2018-Jun-13 11:31N 45°32' E 019°05'0 0.0
2018-Jun-13 11:01N 45°32' E 019°05'0 0.0
2018-Jun-13 10:31N 45°32' E 019°05'0 0.0
2018-Jun-13 10:01N 45°32' E 019°05'0 0.0
2018-Jun-13 09:31N 45°32' E 019°05'0 0.0
2018-Jun-13 09:01N 45°32' E 019°05'0 0.0
2018-Jun-13 08:31N 45°32' E 019°05'0 0.0
2018-Jun-13 08:01N 45°32' E 019°05'0 0.8
2018-Jun-13 07:31N 45°32' E 019°05'0 0.3
2018-Jun-13 07:01N 45°32' E 019°04'0 0.0
2018-Jun-13 06:31N 45°32' E 019°04'0 0.0
2018-Jun-13 06:01N 45°32' E 019°04'0 0.0
2018-Jun-13 05:31N 45°32' E 019°04'0 0.0
2018-Jun-13 05:01N 45°32' E 019°04'0 0.0
2018-Jun-13 04:31N 45°32' E 019°04'0 0.0
2018-Jun-13 04:01N 45°32' E 019°04'0 0.0
2018-Jun-13 03:31N 45°32' E 019°04'0 0.0
2018-Jun-13 03:01N 45°32' E 019°04'0 0.0
2018-Jun-13 02:31N 45°32' E 019°04'0 0.0
2018-Jun-13 02:01N 45°32' E 019°04'0 0.0
2018-Jun-13 01:31N 45°32' E 019°04'0 0.0
2018-Jun-13 01:01N 45°32' E 019°04'0 0.0
2018-Jun-13 00:31N 45°32' E 019°04'0 0.0
2018-Jun-13 00:01N 45°32' E 019°04'0 0.0
2018-Jun-12 23:31N 45°32' E 019°04'0 0.0
2018-Jun-12 23:01N 45°32' E 019°04'0 0.0
2018-Jun-12 22:31N 45°32' E 019°04'0 0.0
2018-Jun-12 22:01N 45°32' E 019°04'0 0.0
2018-Jun-12 21:31N 45°32' E 019°04'0 0.0
2018-Jun-12 21:01N 45°32' E 019°04'0 0.0
2018-Jun-12 20:31N 45°32' E 019°04'1 2.2
2018-Jun-12 20:00N 45°31' E 019°06'2 3.1
2018-Jun-12 19:31N 45°30' E 019°06'2 3.8
2018-Jun-12 19:01N 45°29' E 019°03'2 4.1
2018-Jun-12 18:31N 45°30' E 019°00'2 3.4
2018-Jun-12 18:01N 45°28' E 018°59'2 3.9
2018-Jun-12 17:31N 45°26' E 018°60'2 3.8
2018-Jun-12 17:01N 45°25' E 019°02'2 3.0
2018-Jun-12 16:30N 45°24' E 019°00'2 3.5
2018-Jun-12 16:01N 45°23' E 018°58'2 3.5
2018-Jun-12 15:29N 45°22' E 018°60'2 3.7
2018-Jun-12 14:53N 45°21' E 019°02'2 4.1
2018-Jun-12 14:30N 45°21' E 019°05'2 3.4
2018-Jun-12 14:00N 45°19' E 019°06'2 3.6
2018-Jun-12 13:30N 45°18' E 019°07'2 4.0
2018-Jun-12 13:00N 45°17' E 019°09'2 4.1
2018-Jun-12 12:30N 45°16' E 019°12'3 3.5
2018-Jun-12 11:41N 45°14' E 019°16'1 1.5
2018-Jun-12 10:51N 45°14' E 019°17'1 4.0
2018-Jun-12 10:30N 45°14' E 019°19'2 3.7
2018-Jun-12 10:00N 45°14' E 019°22'2 3.5
2018-Jun-12 09:30N 45°14' E 019°25'11 3.5
2018-Jun-12 06:21N 45°13' E 019°40'2 4.1
2018-Jun-12 05:57N 45°14' E 019°42'2 4.2
2018-Jun-12 05:30N 45°14' E 019°45'2 4.2
2018-Jun-12 04:59N 45°13' E 019°48'2 3.9
2018-Jun-12 04:30N 45°14' E 019°51'2 4.0
2018-Jun-12 04:00N 45°16' E 019°52'1 2.4
2018-Jun-12 03:30N 45°16' E 019°53'1 1.5
2018-Jun-12 03:00N 45°15' E 019°54'0 0.0
2018-Jun-12 02:30N 45°15' E 019°54'0 0.0
2018-Jun-12 02:01N 45°15' E 019°54'0 0.0
2018-Jun-12 01:31N 45°15' E 019°54'0 0.0
2018-Jun-12 00:50N 45°15' E 019°54'0 0.0
2018-Jun-12 00:31N 45°15' E 019°54'0 0.0
2018-Jun-12 00:01N 45°15' E 019°54'0 0.0
2018-Jun-11 23:31N 45°15' E 019°54'0 0.0
2018-Jun-11 23:01N 45°15' E 019°54'1 1.0
2018-Jun-11 22:31N 45°15' E 019°55'2 4.2
2018-Jun-11 22:01N 45°13' E 019°56'2 3.7
2018-Jun-11 21:31N 45°12' E 019°58'2 4.7
2018-Jun-11 21:00N 45°11' E 020°01'2 4.7
2018-Jun-11 20:31N 45°10' E 020°04'2 4.4
2018-Jun-11 20:00N 45°10' E 020°07'2 4.5
2018-Jun-11 19:30N 45°11' E 020°10'2 4.2
2018-Jun-11 19:01N 45°10' E 020°13'2 4.5
2018-Jun-11 18:30N 45°09' E 020°15'2 4.6
2018-Jun-11 18:00N 45°07' E 020°17'4 4.5
2018-Jun-11 17:11N 45°04' E 020°20'1 5.1
2018-Jun-11 17:00N 45°03' E 020°21'2 4.7
2018-Jun-11 16:31N 45°01' E 020°22'2 3.7
2018-Jun-11 16:00N 44°60' E 020°20'2 4.1
2018-Jun-11 15:31N 44°59' E 020°17'2 4.1
2018-Jun-11 15:00N 44°57' E 020°18'2 4.2
2018-Jun-11 14:31N 44°55' E 020°20'2 4.5
2018-Jun-11 14:01N 44°53' E 020°21'2 4.7
2018-Jun-11 13:31N 44°52' E 020°23'2 4.6
2018-Jun-11 13:01N 44°51' E 020°26'2 4.8
2018-Jun-11 12:31N 44°50' E 020°29'3 5.1
2018-Jun-11 12:01N 44°50' E 020°33'2 4.8
2018-Jun-11 11:30N 44°51' E 020°36'2 4.7
2018-Jun-11 11:01N 44°50' E 020°39'3 5.2
2018-Jun-11 10:30N 44°47' E 020°38'3 4.8
2018-Jun-11 09:55N 44°45' E 020°39'3 5.2
2018-Jun-11 09:15N 44°42' E 020°42'  

Dump ship's entire track history